Time;durP1;ratioP1;P1;durP2;ratioP2;P2;SDS_P1;SDS_P2;PMS_P1;PMS_P2;Temp;Humidity;BMP_temperature;BMP_pressure;BME280_temperature;BME280_humidity;BME280_pressure;Samples;Min_cycle;Max_cycle;Signal;HPM_P1;HPM_P2
2023/04/20 00:00:44;;;;;;;6.47;2.88;;;7.30;99.90;;;;;;5095338;27;20536;-73
2023/04/20 00:03:11;;;;;;;6.43;2.92;;;7.30;99.90;;;;;;5082686;28;20058;-72
2023/04/20 00:05:37;;;;;;;5.80;2.70;;;7.30;99.90;;;;;;5077703;28;20123;-72
2023/04/20 00:08:03;;;;;;;5.90;2.67;;;7.30;99.90;;;;;;5114296;27;20051;-72
2023/04/20 00:10:29;;;;;;;7.40;2.60;;;7.30;99.90;;;;;;5082569;28;20479;-71
2023/04/20 00:12:54;;;;;;;8.18;3.20;;;7.30;99.90;;;;;;5082943;28;20062;-73
2023/04/20 00:15:20;;;;;;;8.32;2.75;;;7.30;99.90;;;;;;5081334;28;20900;-72
2023/04/20 00:17:52;;;;;;;4.65;2.92;;;7.30;99.90;;;;;;5081463;28;20054;-73
2023/04/20 00:20:18;;;;;;;6.57;2.75;;;7.30;99.90;;;;;;5099502;28;20057;-73
2023/04/20 00:22:44;;;;;;;7.13;2.78;;;7.20;99.90;;;;;;5098094;27;20754;-73
2023/04/20 00:25:10;;;;;;;6.15;2.90;;;7.50;99.90;;;;;;5076234;28;20052;-73
2023/04/20 00:27:43;;;;;;;6.30;2.80;;;7.30;99.90;;;;;;5080069;28;20040;-73
2023/04/20 00:30:15;;;;;;;6.65;2.88;;;7.30;99.90;;;;;;5079777;28;20063;-72
2023/04/20 00:32:41;;;;;;;6.55;2.70;;;7.30;99.90;;;;;;5070786;28;20499;-73
2023/04/20 00:35:07;;;;;;;5.07;2.75;;;7.20;99.90;;;;;;5056753;28;20044;-72
2023/04/20 00:37:35;;;;;;;5.90;2.70;;;7.30;99.90;;;;;;5112368;27;20052;-70
2023/04/20 00:40:01;;;;;;;6.43;2.55;;;7.20;99.90;;;;;;5061913;28;20052;-72
2023/04/20 00:42:27;;;;;;;4.95;2.63;;;7.20;99.90;;;;;;5095783;28;20154;-73
2023/04/20 00:44:53;;;;;;;6.75;3.20;;;7.20;99.90;;;;;;5094051;28;20587;-73
2023/04/20 00:47:19;;;;;;;8.10;3.08;;;7.20;99.90;;;;;;5069169;28;20305;-72
2023/04/20 00:49:45;;;;;;;5.30;2.75;;;7.20;99.90;;;;;;5113854;27;20057;-72
2023/04/20 00:52:11;;;;;;;7.22;2.63;;;7.20;99.90;;;;;;5112298;27;20059;-72
2023/04/20 00:54:37;;;;;;;5.43;2.40;;;7.20;99.90;;;;;;5114596;27;20051;-76
2023/04/20 00:57:05;;;;;;;4.95;2.58;;;7.20;99.90;;;;;;5083925;28;20048;-74
2023/04/20 00:59:31;;;;;;;6.35;2.65;;;7.20;99.90;;;;;;5076068;28;20047;-73
2023/04/20 01:01:57;;;;;;;5.28;2.30;;;6.30;99.90;;;;;;5111574;27;20051;-73
2023/04/20 01:04:23;;;;;;;7.75;2.50;;;7.20;99.90;;;;;;5094505;28;20521;-71
2023/04/20 01:06:48;;;;;;;7.43;2.60;;;7.20;99.90;;;;;;5096238;27;20054;-72
2023/04/20 01:09:16;;;;;;;5.72;2.17;;;7.20;99.90;;;;;;5081118;28;20237;-72
2023/04/20 01:11:42;;;;;;;3.72;2.53;;;7.20;99.90;;;;;;5078989;28;20047;-72
2023/04/20 01:14:07;;;;;;;5.32;2.22;;;7.20;99.90;;;;;;5096286;28;20059;-72
2023/04/20 01:16:35;;;;;;;4.75;2.10;;;7.20;99.90;;;;;;5080432;28;20044;-72
2023/04/20 01:19:01;;;;;;;6.22;2.30;;;7.20;99.90;;;;;;5087678;28;20104;-71
2023/04/20 01:21:26;;;;;;;5.43;2.00;;;7.20;99.90;;;;;;5098400;27;20052;-70
2023/04/20 01:23:52;;;;;;;4.57;1.95;;;7.20;99.90;;;;;;5069427;28;20404;-71
2023/04/20 01:26:21;;;;;;;6.65;2.58;;;7.20;99.90;;;;;;5065076;28;20055;-73
2023/04/20 01:28:47;;;;;;;3.78;2.10;;;8.30;99.90;;;;;;5116909;27;20075;-71
2023/04/20 01:31:18;;;;;;;4.68;1.63;;;7.30;99.90;;;;;;5082808;28;20749;-72
2023/04/20 01:33:46;;;;;;;4.63;1.98;;;7.30;99.90;;;;;;5080005;27;20941;-72
2023/04/20 01:36:13;;;;;;;3.90;2.00;;;7.30;99.90;;;;;;5071117;28;20047;-73
2023/04/20 01:38:40;;;;;;;3.97;2.15;;;7.30;99.90;;;;;;5106326;27;20044;-69
2023/04/20 01:41:07;;;;;;;3.83;2.08;;;7.30;99.90;;;;;;5082971;27;20131;-70
2023/04/20 01:43:35;;;;;;;4.13;2.08;;;7.30;99.90;;;;;;5081245;27;20145;-71
2023/04/20 01:46:01;;;;;;;8.63;2.33;;;7.30;99.90;;;;;;5078529;28;20498;-71
2023/04/20 01:48:28;;;;;;;5.93;2.05;;;7.30;99.90;;;;;;5083141;28;20048;-69
2023/04/20 01:50:53;;;;;;;6.03;1.98;;;7.30;99.90;;;;;;5114234;27;20051;-70
2023/04/20 01:53:20;;;;;;;5.05;2.35;;;7.40;99.90;;;;;;5118281;27;20075;-73
2023/04/20 01:55:48;;;;;;;3.20;1.73;;;7.40;99.90;;;;;;5112817;27;20075;-71
2023/04/20 01:58:14;;;;;;;5.32;2.17;;;7.40;99.90;;;;;;5070988;27;20142;-74
2023/04/20 02:00:43;;;;;;;5.25;1.85;;;7.40;99.90;;;;;;5115887;27;20055;-74
2023/04/20 02:03:09;;;;;;;4.40;1.90;;;7.40;99.90;;;;;;5072052;28;20088;-72
2023/04/20 02:05:36;;;;;;;4.80;2.20;;;7.40;99.90;;;;;;5084796;28;20055;-72
2023/04/20 02:08:04;;;;;;;3.58;1.77;;;7.40;99.90;;;;;;5083834;28;20051;-72
2023/04/20 02:10:30;;;;;;;4.00;1.80;;;7.40;99.90;;;;;;5097827;27;20160;-71
2023/04/20 02:12:57;;;;;;;4.47;1.80;;;7.40;99.90;;;;;;5069658;28;20167;-71
2023/04/20 02:15:23;;;;;;;7.18;1.92;;;7.40;99.90;;;;;;5068690;28;20514;-72
2023/04/20 02:17:52;;;;;;;4.50;2.13;;;7.40;99.90;;;;;;5082012;27;20079;-71
2023/04/20 02:20:18;;;;;;;4.22;1.92;;;7.50;99.90;;;;;;5065876;28;20482;-73
2023/04/20 02:22:44;;;;;;;4.95;1.80;;;7.50;99.90;;;;;;5113301;27;20046;-72
2023/04/20 02:25:14;;;;;;;5.97;1.90;;;7.50;99.90;;;;;;5082289;28;20055;-73
2023/04/20 02:27:40;;;;;;;3.70;1.70;;;7.50;99.90;;;;;;5086877;27;20121;-73
2023/04/20 02:30:07;;;;;;;4.43;1.92;;;7.60;99.90;;;;;;5053103;28;20860;-71
2023/04/20 02:32:33;;;;;;;5.97;1.80;;;7.60;99.90;;;;;;5112167;27;20044;-72
2023/04/20 02:34:59;;;;;;;5.82;2.00;;;7.60;99.90;;;;;;5066504;28;20518;-73
2023/04/20 02:37:26;;;;;;;8.18;2.13;;;7.60;99.90;;;;;;5084301;28;20050;-73
2023/04/20 02:39:52;;;;;;;7.32;2.03;;;7.60;99.90;;;;;;5083065;28;20336;-71
2023/04/20 02:42:18;;;;;;;6.75;2.03;;;7.60;99.90;;;;;;5113834;27;20044;-71
2023/04/20 02:44:43;;;;;;;5.50;1.90;;;7.60;99.90;;;;;;5114210;27;20040;-72
2023/04/20 02:47:09;;;;;;;5.75;1.92;;;7.60;99.90;;;;;;5081826;28;20186;-71
2023/04/20 02:49:35;;;;;;;4.43;2.05;;;7.60;99.90;;;;;;5053829;28;20036;-72
2023/04/20 02:52:01;;;;;;;4.70;1.75;;;7.60;99.90;;;;;;5083300;27;20078;-72
2023/04/20 02:54:27;;;;;;;7.05;2.05;;;7.60;99.90;;;;;;5094575;27;20130;-72
2023/04/20 02:56:53;;;;;;;6.93;1.75;;;7.60;99.90;;;;;;5068329;28;20047;-73
2023/04/20 02:59:19;;;;;;;4.43;1.90;;;7.60;99.90;;;;;;5114327;27;20162;-75
2023/04/20 03:01:45;;;;;;;5.78;1.90;;;7.60;99.90;;;;;;5114376;27;20058;-73
2023/04/20 03:04:13;;;;;;;9.68;2.28;;;7.60;99.90;;;;;;5098377;27;20098;-74
2023/04/20 03:06:39;;;;;;;8.60;2.05;;;7.60;99.90;;;;;;5114443;27;20054;-73
2023/04/20 03:09:06;;;;;;;5.60;1.98;;;7.60;99.90;;;;;;5113254;27;20048;-73
2023/04/20 03:11:32;;;;;;;6.55;1.92;;;7.60;99.90;;;;;;5080704;27;20934;-71
2023/04/20 03:13:58;;;;;;;4.85;2.20;;;7.60;99.90;;;;;;5068796;28;20132;-71
2023/04/20 03:16:24;;;;;;;4.95;2.20;;;7.60;99.90;;;;;;5083292;28;20494;-73
2023/04/20 03:18:51;;;;;;;8.65;2.25;;;7.50;99.90;;;;;;5112741;27;20055;-72
2023/04/20 03:21:17;;;;;;;7.05;2.13;;;7.50;99.90;;;;;;5063185;28;20047;-73
2023/04/20 03:23:43;;;;;;;8.75;2.22;;;7.50;99.90;;;;;;5052299;28;20250;-70
2023/04/20 03:26:09;;;;;;;10.80;2.40;;;7.50;99.90;;;;;;5101300;27;20563;-70
2023/04/20 03:28:35;;;;;;;5.88;2.10;;;7.50;99.90;;;;;;5111773;27;20092;-73
2023/04/20 03:31:01;;;;;;;7.43;2.05;;;7.50;99.90;;;;;;5099824;27;20048;-71
2023/04/20 03:33:27;;;;;;;6.35;1.95;;;7.50;99.90;;;;;;5067885;28;20052;-78
2023/04/20 03:35:53;;;;;;;5.63;2.13;;;7.50;99.90;;;;;;5091487;28;20224;-76
2023/04/20 03:38:24;;;;;;;5.32;1.90;;;7.50;99.90;;;;;;5071212;28;20050;-77
2023/04/20 03:40:50;;;;;;;5.28;2.00;;;7.50;99.90;;;;;;5116251;27;20052;-78
2023/04/20 03:43:15;;;;;;;7.78;2.28;;;7.50;99.90;;;;;;5065302;28;20047;-78
2023/04/20 03:45:41;;;;;;;5.80;2.13;;;7.50;99.90;;;;;;5065376;28;20926;-75
2023/04/20 03:48:07;;;;;;;6.13;1.90;;;7.50;99.90;;;;;;5072858;28;20048;-79
2023/04/20 03:50:33;;;;;;;5.43;1.80;;;7.50;99.90;;;;;;5053505;28;20046;-76
2023/04/20 03:53:00;;;;;;;6.00;2.10;;;7.50;99.90;;;;;;5072567;28;20221;-75
2023/04/20 03:55:26;;;;;;;9.15;2.45;;;7.50;99.90;;;;;;5064649;28;20083;-77
2023/04/20 03:57:52;;;;;;;12.98;2.60;;;7.50;99.90;;;;;;5112886;27;20249;-77
2023/04/20 04:00:18;;;;;;;8.15;2.50;;;7.50;99.90;;;;;;5100379;27;20126;-77
2023/04/20 04:02:45;;;;;;;3.88;2.00;;;7.50;99.90;;;;;;5064378;28;20363;-75
2023/04/20 04:05:13;;;;;;;5.80;2.08;;;7.50;99.90;;;;;;5063268;28;20051;-77
2023/04/20 04:07:40;;;;;;;8.05;2.58;;;7.50;99.90;;;;;;5049157;28;20078;-73
2023/04/20 04:10:06;;;;;;;5.05;2.17;;;7.50;99.90;;;;;;5078975;28;20047;-79
2023/04/20 04:12:32;;;;;;;5.47;2.47;;;7.50;99.90;;;;;;5115348;27;20044;-77
2023/04/20 04:14:57;;;;;;;5.50;2.10;;;7.50;99.90;;;;;;5096417;27;20059;-77
2023/04/20 04:17:24;;;;;;;9.75;2.58;;;7.50;99.90;;;;;;5111699;27;20047;-76
2023/04/20 04:19:53;;;;;;;7.20;2.20;;;7.50;99.90;;;;;;5082743;28;20104;-77
2023/04/20 04:22:19;;;;;;;6.63;2.40;;;7.50;99.90;;;;;;5078027;28;20071;-74
2023/04/20 04:24:47;;;;;;;8.48;2.33;;;7.50;99.90;;;;;;5112592;27;20150;-77
2023/04/20 04:27:14;;;;;;;7.90;2.40;;;7.60;99.90;;;;;;5079222;28;20055;-76
2023/04/20 04:29:40;;;;;;;6.97;2.28;;;7.60;99.90;;;;;;5078917;28;20047;-76
2023/04/20 04:32:06;;;;;;;5.45;2.17;;;7.60;99.90;;;;;;5080446;28;20082;-76
2023/04/20 04:34:35;;;;;;;7.13;2.33;;;7.60;99.90;;;;;;5080652;28;20450;-77
2023/04/20 04:37:01;;;;;;;6.97;2.20;;;7.60;99.90;;;;;;5067084;28;20052;-75
2023/04/20 04:39:27;;;;;;;6.85;2.20;;;7.60;99.90;;;;;;5079098;28;20047;-73
2023/04/20 04:41:53;;;;;;;5.28;2.60;;;7.60;99.90;;;;;;5079525;28;20445;-77
2023/04/20 04:44:20;;;;;;;4.47;2.15;;;7.60;99.90;;;;;;5112726;27;20062;-78
2023/04/20 04:46:47;;;;;;;11.05;2.42;;;7.70;99.90;;;;;;5115035;27;20058;-75
2023/04/20 04:49:14;;;;;;;9.20;2.58;;;7.70;99.90;;;;;;5067590;28;20051;-79
2023/04/20 04:51:39;;;;;;;6.93;2.13;;;7.70;99.90;;;;;;5111830;27;20073;-76
2023/04/20 04:54:05;;;;;;;8.07;2.58;;;7.70;99.90;;;;;;5099630;27;20047;-74
2023/04/20 04:56:31;;;;;;;9.43;2.83;;;7.80;99.90;;;;;;5081780;28;20031;-73
2023/04/20 04:58:57;;;;;;;10.30;2.53;;;7.80;99.90;;;;;;5079334;28;20054;-77
2023/04/20 05:01:23;;;;;;;6.50;2.35;;;7.80;99.90;;;;;;5061280;28;20055;-76
2023/04/20 05:03:49;;;;;;;8.60;2.63;;;7.80;99.90;;;;;;5071391;28;21704;-76
2023/04/20 05:06:15;;;;;;;5.40;2.00;;;7.80;99.90;;;;;;5070717;28;20135;-79
2023/04/20 05:08:42;;;;;;;7.78;2.50;;;7.80;99.90;;;;;;5074565;28;20715;-75
2023/04/20 05:11:07;;;;;;;7.82;2.42;;;8.50;99.90;;;;;;5073943;28;20047;-76
2023/04/20 05:13:33;;;;;;;7.05;2.40;;;7.80;99.90;;;;;;5101659;27;20059;-75
2023/04/20 05:15:59;;;;;;;5.45;2.10;;;7.80;99.90;;;;;;5073616;27;20512;-75
2023/04/20 05:18:24;;;;;;;6.57;2.53;;;7.80;99.90;;;;;;5074176;28;20048;-77
2023/04/20 05:20:50;;;;;;;9.80;2.50;;;7.80;99.90;;;;;;5114765;27;20437;-77
2023/04/20 05:23:16;;;;;;;6.05;2.70;;;7.80;99.90;;;;;;5085811;28;20062;-75
2023/04/20 05:25:42;;;;;;;8.57;2.40;;;7.80;99.90;;;;;;5056292;28;20056;-79
2023/04/20 05:28:09;;;;;;;7.07;2.83;;;7.80;99.90;;;;;;5083401;28;20047;-79
2023/04/20 05:30:35;;;;;;;7.78;2.70;;;7.90;99.90;;;;;;5103030;27;20044;-80
2023/04/20 05:33:03;;;;;;;7.53;2.30;;;7.90;99.90;;;;;;5121597;27;20544;-77
2023/04/20 05:35:29;;;;;;;9.68;2.53;;;7.90;99.90;;;;;;5072225;28;20047;-77
2023/04/20 05:38:01;;;;;;;9.60;2.60;;;8.00;99.90;;;;;;5085971;28;20115;-77
2023/04/20 05:40:28;;;;;;;5.95;2.50;;;8.00;99.90;;;;;;5086146;28;20051;-78
2023/04/20 05:42:54;;;;;;;5.32;2.10;;;8.00;99.90;;;;;;5084623;27;20055;-76
2023/04/20 05:45:20;;;;;;;8.13;2.45;;;8.10;99.90;;;;;;5086250;27;20039;-77
2023/04/20 05:47:53;;;;;;;8.65;2.35;;;8.10;99.90;;;;;;5117798;27;20052;-76
2023/04/20 05:50:19;;;;;;;9.75;2.30;;;8.10;99.90;;;;;;5110670;27;20071;-77
2023/04/20 05:52:45;;;;;;;4.95;2.22;;;8.10;99.90;;;;;;5095289;27;20166;-76
2023/04/20 05:55:11;;;;;;;6.18;2.10;;;8.20;99.90;;;;;;5079981;28;20486;-76
2023/04/20 05:57:42;;;;;;;6.88;2.17;;;8.20;99.90;;;;;;5069321;28;20058;-75
2023/04/20 06:00:10;;;;;;;12.77;2.95;;;8.20;99.90;;;;;;5086811;28;20166;-76
2023/04/20 06:02:37;;;;;;;9.02;2.60;;;8.20;99.90;;;;;;5121391;27;20195;-74
2023/04/20 06:05:03;;;;;;;8.75;2.60;;;8.30;99.90;;;;;;5105421;27;20075;-75
2023/04/20 06:07:41;;;;;;;10.68;2.72;;;8.30;99.90;;;;;;5079954;28;20096;-77
2023/04/20 06:10:07;;;;;;;11.55;2.45;;;8.40;99.90;;;;;;5092947;27;20216;-75
2023/04/20 06:12:33;;;;;;;10.40;2.45;;;8.40;99.90;;;;;;5125343;27;20055;-74
2023/04/20 06:14:59;;;;;;;6.93;2.00;;;8.40;99.90;;;;;;5074798;28;20119;-76
2023/04/20 06:17:26;;;;;;;5.45;2.95;;;8.40;99.90;;;;;;5115277;27;20134;-78
2023/04/20 06:19:53;;;;;;;7.28;2.50;;;8.50;99.90;;;;;;5093377;28;20878;-76
2023/04/20 06:22:18;;;;;;;6.72;2.28;;;8.50;99.90;;;;;;5094878;28;20048;-77
2023/04/20 06:24:45;;;;;;;5.50;2.17;;;8.50;99.90;;;;;;5125405;27;20506;-78
2023/04/20 06:27:11;;;;;;;7.40;2.42;;;8.60;99.90;;;;;;5097662;28;20059;-76
2023/04/20 06:29:37;;;;;;;6.90;2.42;;;8.60;99.90;;;;;;5124409;27;20040;-75
2023/04/20 06:32:03;;;;;;;5.60;2.47;;;8.60;99.90;;;;;;5125247;27;20055;-76
2023/04/20 06:34:29;;;;;;;6.90;2.85;;;8.60;99.90;;;;;;5077483;28;20055;-76
2023/04/20 06:36:55;;;;;;;7.18;2.70;;;8.60;99.90;;;;;;5125911;27;20067;-76
2023/04/20 06:39:21;;;;;;;8.48;2.40;;;8.70;99.90;;;;;;5124678;27;20048;-75
2023/04/20 06:41:48;;;;;;;8.57;2.40;;;8.70;99.90;;;;;;5093884;28;20059;-75
2023/04/20 06:44:16;;;;;;;8.40;2.53;;;8.70;99.90;;;;;;5066338;28;20100;-74
2023/04/20 06:46:49;;;;;;;7.20;2.35;;;8.70;99.90;;;;;;5009875;28;20134;-79
2023/04/20 06:49:15;;;;;;;9.95;2.60;;;8.60;99.90;;;;;;5076427;28;20118;-74
2023/04/20 06:51:41;;;;;;;6.45;2.10;;;8.70;99.90;;;;;;5075257;28;20049;-73
2023/04/20 06:54:11;;;;;;;5.65;2.28;;;8.70;99.90;;;;;;5087773;28;20099;-79
2023/04/20 06:57:15;;;;;;;7.40;2.40;;;8.80;99.90;;;;;;5015817;28;21088;-71
2023/04/20 06:59:40;;;;;;;6.13;2.10;;;8.90;99.90;;;;;;5005644;28;20037;-75
2023/04/20 07:02:06;;;;;;;5.20;1.95;;;9.10;99.90;;;;;;5072668;28;20465;-76
2023/04/20 07:04:32;;;;;;;6.15;2.20;;;9.10;99.90;;;;;;4998245;28;20449;-76
2023/04/20 07:07:00;;;;;;;7.60;2.30;;;10.50;99.90;;;;;;5079919;28;20060;-80
2023/04/20 07:09:26;;;;;;;5.35;2.60;;;9.40;99.90;;;;;;5088956;28;20102;-74
2023/04/20 07:11:59;;;;;;;6.25;1.85;;;9.60;99.90;;;;;;5115552;27;20434;-75
2023/04/20 07:14:25;;;;;;;9.07;2.40;;;9.60;99.90;;;;;;5070473;28;20498;-75
2023/04/20 07:16:52;;;;;;;4.70;2.15;;;9.70;99.90;;;;;;5086138;28;20320;-76
2023/04/20 07:19:17;;;;;;;7.90;2.35;;;9.70;99.90;;;;;;5079932;28;20490;-75
2023/04/20 07:21:46;;;;;;;8.82;2.85;;;9.70;99.90;;;;;;5075464;28;20176;-75
2023/04/20 07:24:12;;;;;;;8.68;2.25;;;9.80;99.90;;;;;;5074640;28;20438;-76
2023/04/20 07:26:38;;;;;;;7.43;2.42;;;9.80;99.90;;;;;;5089547;28;20481;-76
2023/04/20 07:29:05;;;;;;;7.25;2.45;;;9.80;99.90;;;;;;5073194;28;20119;-75
2023/04/20 07:31:31;;;;;;;4.35;2.20;;;9.90;99.90;;;;;;5122970;27;20059;-75
2023/04/20 07:33:56;;;;;;;4.53;1.83;;;10.10;99.90;;;;;;5075391;28;20094;-75
2023/04/20 07:36:22;;;;;;;5.13;2.15;;;10.20;99.90;;;;;;5088322;28;20590;-76
2023/04/20 07:38:51;;;;;;;6.07;2.47;;;10.30;99.90;;;;;;5085593;28;20058;-74
2023/04/20 07:41:17;;;;;;;4.20;1.73;;;10.30;99.90;;;;;;5058793;28;20040;-75
2023/04/20 07:43:43;;;;;;;5.50;2.05;;;10.30;99.90;;;;;;5093371;28;20062;-74
2023/04/20 07:46:09;;;;;;;6.20;2.30;;;10.20;99.90;;;;;;5114004;27;20062;-75
2023/04/20 07:48:36;;;;;;;5.15;1.90;;;10.10;99.90;;;;;;5092214;28;20060;-75
2023/04/20 07:51:03;;;;;;;6.53;2.13;;;10.10;99.90;;;;;;5095787;28;20054;-74
2023/04/20 07:53:29;;;;;;;4.55;1.75;;;10.00;99.90;;;;;;5073383;28;20044;-75
2023/04/20 07:55:55;;;;;;;3.95;2.17;;;9.90;99.90;;;;;;5105413;27;20066;-75
2023/04/20 07:58:20;;;;;;;5.05;2.10;;;9.90;99.90;;;;;;5075698;28;20100;-76
2023/04/20 08:00:46;;;;;;;7.18;2.95;;;9.80;99.90;;;;;;5107981;27;20073;-76
2023/04/20 08:03:13;;;;;;;3.75;1.90;;;9.80;99.90;;;;;;5092607;28;20047;-76
2023/04/20 08:05:42;;;;;;;6.18;2.05;;;9.70;99.90;;;;;;5071733;28;20478;-76
2023/04/20 08:08:07;;;;;;;4.95;2.00;;;9.50;99.90;;;;;;5065414;28;20510;-75
2023/04/20 08:10:33;;;;;;;5.43;1.95;;;9.50;99.90;;;;;;5079902;28;20093;-74
2023/04/20 08:12:59;;;;;;;4.28;2.40;;;9.40;99.90;;;;;;5088434;28;20108;-76
2023/04/20 08:15:25;;;;;;;4.40;2.08;;;9.30;99.90;;;;;;5073965;28;20047;-74
2023/04/20 08:17:57;;;;;;;9.80;2.63;;;9.20;99.90;;;;;;5121247;27;20158;-76
2023/04/20 08:20:22;;;;;;;8.18;2.38;;;9.10;99.90;;;;;;5091731;28;20052;-76
2023/04/20 08:22:49;;;;;;;6.03;2.20;;;9.00;99.90;;;;;;5106123;27;20048;-73
2023/04/20 08:25:15;;;;;;;5.90;2.20;;;8.90;99.90;;;;;;5092698;28;20112;-75
2023/04/20 08:27:43;;;;;;;4.55;2.30;;;8.80;99.90;;;;;;5124287;27;20047;-73
2023/04/20 08:30:10;;;;;;;5.22;2.42;;;8.80;99.90;;;;;;5073160;28;20047;-76
2023/04/20 08:32:36;;;;;;;5.18;2.13;;;8.70;99.90;;;;;;5111144;27;20051;-75
2023/04/20 08:35:03;;;;;;;6.78;2.60;;;8.60;99.90;;;;;;5084675;28;20089;-75
2023/04/20 08:37:28;;;;;;;4.50;2.20;;;8.50;99.90;;;;;;5128356;27;20059;-76
2023/04/20 08:39:54;;;;;;;5.10;2.38;;;8.50;99.90;;;;;;5092644;28;20074;-75
2023/04/20 08:42:20;;;;;;;6.07;2.20;;;8.40;99.90;;;;;;5128563;27;20056;-74
2023/04/20 08:44:47;;;;;;;5.18;2.30;;;8.40;99.90;;;;;;5081682;28;20047;-75
2023/04/20 08:47:13;;;;;;;6.43;2.63;;;8.30;99.90;;;;;;5080704;28;20036;-77
2023/04/20 08:49:40;;;;;;;4.60;2.40;;;8.30;99.90;;;;;;5095889;28;20039;-74
2023/04/20 08:52:09;;;;;;;4.72;2.58;;;8.20;99.90;;;;;;5083374;28;20062;-74
2023/04/20 08:54:37;;;;;;;9.73;2.78;;;8.20;99.90;;;;;;5064099;28;20058;-74
2023/04/20 08:57:03;;;;;;;6.15;2.70;;;8.10;99.90;;;;;;5129426;27;20090;-76
2023/04/20 08:59:29;;;;;;;7.35;2.80;;;8.10;99.90;;;;;;5096446;28;20043;-76
2023/04/20 09:01:55;;;;;;;6.60;2.80;;;8.00;99.90;;;;;;5127593;27;20079;-75
2023/04/20 09:04:23;;;;;;;5.03;2.70;;;8.00;99.90;;;;;;5077969;28;20051;-75
2023/04/20 09:06:52;;;;;;;5.80;2.60;;;7.90;99.90;;;;;;5111093;27;20086;-76
2023/04/20 09:09:23;;;;;;;5.70;2.60;;;7.90;99.90;;;;;;5096766;28;20494;-76
2023/04/20 09:12:03;;;;;;;4.40;2.50;;;7.90;99.90;;;;;;5083723;28;20108;-75
2023/04/20 09:14:42;;;;;;;4.72;2.70;;;7.80;99.90;;;;;;5090159;27;20122;-74
2023/04/20 09:17:13;;;;;;;8.25;2.60;;;7.90;99.90;;;;;;5093359;28;20056;-75
2023/04/20 09:19:39;;;;;;;5.82;2.80;;;7.90;99.90;;;;;;5093847;27;20051;-76
2023/04/20 09:22:05;;;;;;;5.18;2.60;;;7.80;99.90;;;;;;5089758;28;20054;-73
2023/04/20 09:24:35;;;;;;;10.50;3.13;;;7.80;99.90;;;;;;5105799;27;20048;-74
2023/04/20 09:27:16;;;;;;;5.40;2.67;;;7.80;99.90;;;;;;5089649;28;20209;-75
2023/04/20 09:29:42;;;;;;;5.97;2.92;;;7.70;99.90;;;;;;5084033;28;20066;-74
2023/04/20 09:32:22;;;;;;;5.55;3.00;;;7.70;99.90;;;;;;5074304;28;20059;-75
2023/04/20 09:34:47;;;;;;;5.75;3.15;;;7.70;99.90;;;;;;5124081;27;20094;-74
2023/04/20 09:37:17;;;;;;;7.65;3.38;;;7.60;99.90;;;;;;5070716;28;20138;-74
2023/04/20 09:39:44;;;;;;;6.47;3.10;;;7.50;99.90;;;;;;5091534;28;20399;-75
2023/04/20 09:42:12;;;;;;;9.43;3.70;;;7.50;99.90;;;;;;5089398;28;20051;-75
2023/04/20 09:44:39;;;;;;;8.50;3.42;;;7.50;99.90;;;;;;5086698;28;20047;-75
2023/04/20 09:47:07;;;;;;;5.97;3.08;;;7.50;99.90;;;;;;5092030;28;20055;-76
2023/04/20 09:49:33;;;;;;;5.72;3.17;;;7.50;99.90;;;;;;5114327;27;20051;-75
2023/04/20 09:52:02;;;;;;;11.68;3.40;;;7.50;99.90;;;;;;5082927;28;20040;-75
2023/04/20 09:54:29;;;;;;;7.15;3.30;;;7.60;99.90;;;;;;5082810;28;20054;-74
2023/04/20 09:56:58;;;;;;;7.38;3.33;;;7.60;99.90;;;;;;5124566;27;20047;-75
2023/04/20 09:59:27;;;;;;;7.47;3.22;;;7.80;99.90;;;;;;5076757;28;20051;-75
2023/04/20 10:01:53;;;;;;;8.20;3.35;;;7.70;99.90;;;;;;5125744;27;20083;-74
2023/04/20 10:04:19;;;;;;;7.80;3.13;;;7.70;99.90;;;;;;5104060;27;20083;-74
2023/04/20 10:06:54;;;;;;;5.05;3.08;;;7.80;99.90;;;;;;5077017;28;20086;-74
2023/04/20 10:09:25;;;;;;;5.97;3.13;;;7.90;99.90;;;;;;5082435;28;20040;-74
2023/04/20 10:11:51;;;;;;;8.65;3.63;;;8.00;99.90;;;;;;5116313;27;20055;-75
2023/04/20 10:14:19;;;;;;;10.48;3.28;;;8.10;99.90;;;;;;5108540;27;20198;-75
2023/04/20 10:16:57;;;;;;;6.25;3.40;;;8.20;99.90;;;;;;5093543;28;20436;-75
2023/04/20 10:19:23;;;;;;;7.78;3.70;;;8.20;99.90;;;;;;5125325;27;20061;-75
2023/04/20 10:21:50;;;;;;;6.35;3.42;;;8.30;99.90;;;;;;5090388;27;20537;-76
2023/04/20 10:24:28;;;;;;;6.85;3.58;;;8.30;99.90;;;;;;5121495;27;20054;-75
2023/04/20 10:26:54;;;;;;;10.43;3.92;;;8.30;99.90;;;;;;5105954;27;20060;-75
2023/04/20 10:29:27;;;;;;;6.55;3.42;;;8.40;99.90;;;;;;5073066;28;20051;-75
2023/04/20 10:31:54;;;;;;;7.35;3.55;;;8.40;99.90;;;;;;5088623;28;20508;-77
2023/04/20 10:34:36;;;;;;;5.13;3.45;;;8.40;99.90;;;;;;5107902;27;20054;-75
2023/04/20 10:37:13;;;;;;;6.18;3.88;;;8.40;99.90;;;;;;5104819;27;20591;-75
2023/04/20 10:39:55;;;;;;;8.05;3.90;;;8.40;99.90;;;;;;5078643;28;20052;-74
2023/04/20 10:42:21;;;;;;;8.25;3.53;;;8.50;99.90;;;;;;5122425;27;20059;-75
2023/04/20 10:44:52;;;;;;;7.72;3.95;;;8.60;99.90;;;;;;5104675;27;20092;-76
2023/04/20 10:47:30;;;;;;;7.50;3.75;;;8.80;99.90;;;;;;5088150;28;20048;-75
2023/04/20 10:50:10;;;;;;;11.18;3.88;;;9.10;99.90;;;;;;5107176;27;20040;-74
2023/04/20 10:52:38;;;;;;;7.82;3.65;;;9.40;99.90;;;;;;5087404;28;20036;-75
2023/04/20 10:55:06;;;;;;;5.68;3.38;;;9.50;99.90;;;;;;5087806;28;20069;-75
2023/04/20 10:57:32;;;;;;;6.25;3.60;;;9.60;99.90;;;;;;5073077;28;20097;-74
2023/04/20 10:59:59;;;;;;;9.45;3.90;;;9.70;99.90;;;;;;5087635;28;20039;-77
2023/04/20 11:02:26;;;;;;;6.45;4.20;;;9.70;99.90;;;;;;5077957;28;20525;-75
2023/04/20 11:04:54;;;;;;;9.05;4.20;;;9.70;99.90;;;;;;5122832;27;20047;-75
2023/04/20 11:07:20;;;;;;;7.68;3.78;;;9.60;99.90;;;;;;5079454;28;20132;-75
2023/04/20 11:09:56;;;;;;;7.07;4.43;;;9.70;99.90;;;;;;5081466;28;20044;-75
2023/04/20 11:12:22;;;;;;;6.90;3.60;;;9.70;99.90;;;;;;5089163;28;20063;-76
2023/04/20 11:15:01;;;;;;;5.53;3.70;;;9.70;99.90;;;;;;5087261;28;20097;-76
2023/04/20 11:17:35;;;;;;;6.35;3.90;;;9.80;99.90;;;;;;5081900;28;20043;-75
2023/04/20 11:20:20;;;;;;;5.50;3.50;;;9.90;99.90;;;;;;5123969;27;20048;-75
2023/04/20 11:22:57;;;;;;;7.75;3.42;;;10.00;99.90;;;;;;5077056;28;20832;-75
2023/04/20 11:25:23;;;;;;;4.70;3.10;;;10.00;99.90;;;;;;5107678;27;20150;-76
2023/04/20 11:27:48;;;;;;;6.22;3.30;;;10.10;99.90;;;;;;5078840;28;20039;-76
2023/04/20 11:30:20;;;;;;;5.53;3.55;;;10.20;99.90;;;;;;5107109;27;20046;-76
2023/04/20 11:32:53;;;;;;;6.90;3.15;;;10.10;99.90;;;;;;5085493;28;20043;-75
2023/04/20 11:35:21;;;;;;;5.47;3.35;;;10.10;99.90;;;;;;5110172;27;20436;-76
2023/04/20 11:37:50;;;;;;;5.28;3.55;;;10.00;99.90;;;;;;5079391;28;20048;-75
2023/04/20 11:40:16;;;;;;;5.93;3.40;;;9.90;99.90;;;;;;5090836;28;20052;-75
2023/04/20 11:42:42;;;;;;;5.15;3.10;;;9.90;99.90;;;;;;5118582;27;20466;-76
2023/04/20 11:45:10;;;;;;;4.72;3.58;;;9.80;99.90;;;;;;5078814;28;20058;-77
2023/04/20 11:47:37;;;;;;;4.75;3.15;;;9.70;99.90;;;;;;5078378;28;20499;-76
2023/04/20 11:50:04;;;;;;;10.52;3.92;;;9.60;99.90;;;;;;5085194;28;20047;-75
2023/04/20 11:52:30;;;;;;;9.07;3.45;;;9.60;99.90;;;;;;5057113;28;20087;-75
2023/04/20 11:54:56;;;;;;;6.18;3.58;;;9.50;99.90;;;;;;5110458;27;20047;-76
2023/04/20 11:57:24;;;;;;;6.80;3.65;;;9.50;99.90;;;;;;5090449;27;20516;-76
2023/04/20 11:59:50;;;;;;;5.50;3.83;;;9.50;99.90;;;;;;5101136;27;20498;-76
2023/04/20 12:02:16;;;;;;;8.25;3.83;;;9.40;99.90;;;;;;5119088;27;20052;-76
2023/04/20 12:04:41;;;;;;;6.53;3.70;;;9.40;99.90;;;;;;5118586;27;20459;-77
2023/04/20 12:07:07;;;;;;;7.88;3.90;;;9.40;99.90;;;;;;5088260;28;20054;-76
2023/04/20 12:09:37;;;;;;;6.88;4.22;;;9.30;99.90;;;;;;5120683;27;20505;-78
2023/04/20 12:12:07;;;;;;;6.13;4.15;;;9.30;99.90;;;;;;5117575;27;20109;-74
2023/04/20 12:14:33;;;;;;;7.95;4.43;;;9.30;99.90;;;;;;5076724;28;20389;-75
2023/04/20 12:17:03;;;;;;;7.63;4.18;;;9.30;99.90;;;;;;5089002;28;20048;-76
2023/04/20 12:19:30;;;;;;;8.50;4.30;;;9.30;99.90;;;;;;5062449;28;20487;-76
2023/04/20 12:21:56;;;;;;;6.50;3.92;;;9.30;99.90;;;;;;5092707;28;20130;-77
2023/04/20 12:24:25;;;;;;;8.55;4.40;;;9.40;99.90;;;;;;5103660;27;20048;-75
2023/04/20 12:26:51;;;;;;;5.63;4.10;;;9.50;99.90;;;;;;5109140;27;20056;-76
2023/04/20 12:29:17;;;;;;;6.30;4.25;;;9.60;99.90;;;;;;5102528;28;20502;-74
2023/04/20 12:31:42;;;;;;;6.70;4.40;;;9.70;99.90;;;;;;5087009;28;20043;-75
2023/04/20 12:34:08;;;;;;;8.63;4.28;;;9.90;99.90;;;;;;5065954;28;20047;-75
2023/04/20 12:36:35;;;;;;;6.40;4.43;;;10.10;99.90;;;;;;5058167;28;20103;-76
2023/04/20 12:39:03;;;;;;;7.20;4.60;;;10.20;99.90;;;;;;5092034;28;20253;-75
2023/04/20 12:41:29;;;;;;;7.53;4.38;;;10.80;99.90;;;;;;5083183;28;20040;-75
2023/04/20 12:43:55;;;;;;;6.18;3.88;;;10.30;99.90;;;;;;5068450;28;20048;-75
2023/04/20 12:46:20;;;;;;;6.28;4.30;;;10.40;99.90;;;;;;5097220;27;20167;-76
2023/04/20 12:48:47;;;;;;;6.35;4.18;;;10.60;99.90;;;;;;5097211;27;20052;-74
2023/04/20 12:51:14;;;;;;;6.03;4.10;;;10.70;99.90;;;;;;5079726;28;20040;-75
2023/04/20 12:53:41;;;;;;;7.18;4.50;;;10.90;99.90;;;;;;5070822;28;20092;-75
2023/04/20 12:56:07;;;;;;;7.50;4.60;;;11.30;99.90;;;;;;5116959;27;20309;-76